sensor_id;sensor_type;location;lat;lon;timestamp;P1;durP1;ratioP1;P2;durP2;ratioP2
20298;SDS011;10308;42.688;23.256;2023-03-01T00:01:51;3.30;;;3.10;;
20298;SDS011;10308;42.688;23.256;2023-03-01T00:04:19;3.08;;;2.88;;
20298;SDS011;10308;42.688;23.256;2023-03-01T00:06:46;3.08;;;2.88;;
20298;SDS011;10308;42.688;23.256;2023-03-01T00:09:13;2.90;;;2.70;;
20298;SDS011;10308;42.688;23.256;2023-03-01T00:11:40;3.13;;;2.92;;
20298;SDS011;10308;42.688;23.256;2023-03-01T00:14:07;3.00;;;2.80;;
20298;SDS011;10308;42.688;23.256;2023-03-01T00:16:34;3.20;;;3.00;;
20298;SDS011;10308;42.688;23.256;2023-03-01T00:19:03;3.38;;;3.10;;
20298;SDS011;10308;42.688;23.256;2023-03-01T00:21:31;5.00;;;4.60;;
20298;SDS011;10308;42.688;23.256;2023-03-01T00:23:58;6.18;;;5.68;;
20298;SDS011;10308;42.688;23.256;2023-03-01T00:26:26;5.35;;;4.95;;
20298;SDS011;10308;42.688;23.256;2023-03-01T00:28:53;4.60;;;4.20;;
20298;SDS011;10308;42.688;23.256;2023-03-01T00:31:21;4.88;;;4.47;;
20298;SDS011;10308;42.688;23.256;2023-03-01T00:33:51;3.80;;;3.60;;
20298;SDS011;10308;42.688;23.256;2023-03-01T00:36:18;3.38;;;3.17;;
20298;SDS011;10308;42.688;23.256;2023-03-01T00:38:47;3.75;;;3.55;;
20298;SDS011;10308;42.688;23.256;2023-03-01T00:41:14;3.90;;;3.60;;
20298;SDS011;10308;42.688;23.256;2023-03-01T00:43:42;3.22;;;3.03;;
20298;SDS011;10308;42.688;23.256;2023-03-01T00:46:10;3.40;;;3.10;;
20298;SDS011;10308;42.688;23.256;2023-03-01T00:48:37;3.38;;;3.17;;
20298;SDS011;10308;42.688;23.256;2023-03-01T00:51:05;4.57;;;4.18;;
20298;SDS011;10308;42.688;23.256;2023-03-01T00:53:33;4.35;;;4.05;;
20298;SDS011;10308;42.688;23.256;2023-03-01T00:56:02;4.05;;;3.67;;
20298;SDS011;10308;42.688;23.256;2023-03-01T00:58:29;4.28;;;3.97;;
20298;SDS011;10308;42.688;23.256;2023-03-01T01:00:56;4.28;;;3.88;;
20298;SDS011;10308;42.688;23.256;2023-03-01T01:03:23;3.50;;;3.20;;
20298;SDS011;10308;42.688;23.256;2023-03-01T01:05:50;4.18;;;3.53;;
20298;SDS011;10308;42.688;23.256;2023-03-01T01:08:17;2.60;;;2.40;;
20298;SDS011;10308;42.688;23.256;2023-03-01T01:10:44;3.28;;;2.90;;
20298;SDS011;10308;42.688;23.256;2023-03-01T01:13:12;2.95;;;2.75;;
20298;SDS011;10308;42.688;23.256;2023-03-01T01:15:39;2.53;;;2.42;;
20298;SDS011;10308;42.688;23.256;2023-03-01T01:18:06;2.80;;;2.60;;
20298;SDS011;10308;42.688;23.256;2023-03-01T01:20:34;2.40;;;2.20;;
20298;SDS011;10308;42.688;23.256;2023-03-01T01:23:01;2.30;;;2.20;;
20298;SDS011;10308;42.688;23.256;2023-03-01T01:25:28;2.58;;;2.38;;
20298;SDS011;10308;42.688;23.256;2023-03-01T01:27:55;2.13;;;2.03;;
20298;SDS011;10308;42.688;23.256;2023-03-01T01:30:23;2.50;;;2.30;;
20298;SDS011;10308;42.688;23.256;2023-03-01T01:32:50;2.00;;;1.90;;
20298;SDS011;10308;42.688;23.256;2023-03-01T01:35:17;2.10;;;2.00;;
20298;SDS011;10308;42.688;23.256;2023-03-01T01:37:43;1.73;;;1.63;;
20298;SDS011;10308;42.688;23.256;2023-03-01T01:40:10;1.90;;;1.80;;
20298;SDS011;10308;42.688;23.256;2023-03-01T01:42:38;1.70;;;1.60;;
20298;SDS011;10308;42.688;23.256;2023-03-01T01:47:53;1.90;;;1.80;;
20298;SDS011;10308;42.688;23.256;2023-03-01T01:50:24;1.70;;;1.60;;
20298;SDS011;10308;42.688;23.256;2023-03-01T01:52:51;1.40;;;1.40;;
20298;SDS011;10308;42.688;23.256;2023-03-01T01:55:20;1.38;;;1.38;;
20298;SDS011;10308;42.688;23.256;2023-03-01T01:57:48;1.52;;;1.42;;
20298;SDS011;10308;42.688;23.256;2023-03-01T02:00:18;1.40;;;1.40;;
20298;SDS011;10308;42.688;23.256;2023-03-01T02:02:48;1.60;;;1.50;;
20298;SDS011;10308;42.688;23.256;2023-03-01T02:05:20;1.30;;;1.30;;
20298;SDS011;10308;42.688;23.256;2023-03-01T02:07:50;1.27;;;1.27;;
20298;SDS011;10308;42.688;23.256;2023-03-01T02:10:17;1.35;;;1.35;;
20298;SDS011;10308;42.688;23.256;2023-03-01T02:12:44;1.33;;;1.30;;
20298;SDS011;10308;42.688;23.256;2023-03-01T02:15:12;1.30;;;1.30;;
20298;SDS011;10308;42.688;23.256;2023-03-01T02:17:38;1.25;;;1.25;;
20298;SDS011;10308;42.688;23.256;2023-03-01T02:20:10;1.40;;;1.30;;
20298;SDS011;10308;42.688;23.256;2023-03-01T02:22:41;1.20;;;1.20;;
20298;SDS011;10308;42.688;23.256;2023-03-01T02:25:12;1.10;;;1.10;;
20298;SDS011;10308;42.688;23.256;2023-03-01T02:27:55;1.52;;;1.42;;
20298;SDS011;10308;42.688;23.256;2023-03-01T02:30:26;1.17;;;1.17;;
20298;SDS011;10308;42.688;23.256;2023-03-01T02:32:54;1.30;;;1.30;;
20298;SDS011;10308;42.688;23.256;2023-03-01T02:35:27;1.30;;;1.30;;
20298;SDS011;10308;42.688;23.256;2023-03-01T02:37:54;1.30;;;1.30;;
20298;SDS011;10308;42.688;23.256;2023-03-01T02:40:22;1.20;;;1.20;;
20298;SDS011;10308;42.688;23.256;2023-03-01T02:42:50;1.40;;;1.40;;
20298;SDS011;10308;42.688;23.256;2023-03-01T02:45:18;1.25;;;1.25;;
20298;SDS011;10308;42.688;23.256;2023-03-01T02:47:46;1.20;;;1.20;;
20298;SDS011;10308;42.688;23.256;2023-03-01T02:50:15;2.05;;;1.42;;
20298;SDS011;10308;42.688;23.256;2023-03-01T02:52:52;1.38;;;1.38;;
20298;SDS011;10308;42.688;23.256;2023-03-01T02:55:22;1.40;;;1.40;;
20298;SDS011;10308;42.688;23.256;2023-03-01T02:57:49;1.60;;;1.50;;
20298;SDS011;10308;42.688;23.256;2023-03-01T03:00:17;1.70;;;1.60;;
20298;SDS011;10308;42.688;23.256;2023-03-01T03:02:47;1.50;;;1.50;;
20298;SDS011;10308;42.688;23.256;2023-03-01T03:05:16;1.80;;;1.70;;
20298;SDS011;10308;42.688;23.256;2023-03-01T03:07:44;1.90;;;1.80;;
20298;SDS011;10308;42.688;23.256;2023-03-01T03:10:13;1.50;;;1.50;;
20298;SDS011;10308;42.688;23.256;2023-03-01T03:12:41;1.55;;;1.50;;
20298;SDS011;10308;42.688;23.256;2023-03-01T03:15:08;1.90;;;1.80;;
20298;SDS011;10308;42.688;23.256;2023-03-01T03:17:38;2.03;;;1.92;;
20298;SDS011;10308;42.688;23.256;2023-03-01T03:20:07;1.77;;;1.67;;
20298;SDS011;10308;42.688;23.256;2023-03-01T03:22:37;1.70;;;1.60;;
20298;SDS011;10308;42.688;23.256;2023-03-01T03:25:04;1.80;;;1.70;;
20298;SDS011;10308;42.688;23.256;2023-03-01T03:27:35;1.88;;;1.77;;
20298;SDS011;10308;42.688;23.256;2023-03-01T03:30:02;2.10;;;2.00;;
20298;SDS011;10308;42.688;23.256;2023-03-01T03:32:34;2.20;;;2.10;;
20298;SDS011;10308;42.688;23.256;2023-03-01T03:35:01;2.20;;;2.10;;
20298;SDS011;10308;42.688;23.256;2023-03-01T03:37:35;2.58;;;2.08;;
20298;SDS011;10308;42.688;23.256;2023-03-01T03:40:20;2.25;;;2.15;;
20298;SDS011;10308;42.688;23.256;2023-03-01T03:42:46;2.15;;;2.05;;
20298;SDS011;10308;42.688;23.256;2023-03-01T03:45:32;2.20;;;2.10;;
20298;SDS011;10308;42.688;23.256;2023-03-01T03:48:00;2.08;;;1.98;;
20298;SDS011;10308;42.688;23.256;2023-03-01T03:50:39;2.20;;;2.10;;
20298;SDS011;10308;42.688;23.256;2023-03-01T03:53:09;2.45;;;2.25;;
20298;SDS011;10308;42.688;23.256;2023-03-01T03:55:36;2.25;;;2.15;;
20298;SDS011;10308;42.688;23.256;2023-03-01T03:58:04;2.20;;;2.10;;
20298;SDS011;10308;42.688;23.256;2023-03-01T04:00:33;2.42;;;2.33;;
20298;SDS011;10308;42.688;23.256;2023-03-01T04:03:18;2.05;;;1.95;;
20298;SDS011;10308;42.688;23.256;2023-03-01T04:05:45;2.47;;;2.38;;
20298;SDS011;10308;42.688;23.256;2023-03-01T04:08:16;2.60;;;2.40;;
20298;SDS011;10308;42.688;23.256;2023-03-01T04:10:46;3.85;;;3.55;;
20298;SDS011;10308;42.688;23.256;2023-03-01T04:13:33;3.05;;;2.85;;
20298;SDS011;10308;42.688;23.256;2023-03-01T04:16:19;3.10;;;2.90;;
20298;SDS011;10308;42.688;23.256;2023-03-01T04:18:46;2.90;;;2.70;;
20298;SDS011;10308;42.688;23.256;2023-03-01T04:21:13;2.83;;;2.65;;
20298;SDS011;10308;42.688;23.256;2023-03-01T04:23:41;2.75;;;2.60;;
20298;SDS011;10308;42.688;23.256;2023-03-01T04:26:08;2.60;;;2.50;;
20298;SDS011;10308;42.688;23.256;2023-03-01T04:28:35;2.80;;;2.60;;
20298;SDS011;10308;42.688;23.256;2023-03-01T04:31:06;2.40;;;2.30;;
20298;SDS011;10308;42.688;23.256;2023-03-01T04:33:39;2.80;;;2.60;;
20298;SDS011;10308;42.688;23.256;2023-03-01T04:36:07;2.28;;;2.17;;
20298;SDS011;10308;42.688;23.256;2023-03-01T04:38:35;2.40;;;2.30;;
20298;SDS011;10308;42.688;23.256;2023-03-01T04:41:03;2.40;;;2.30;;
20298;SDS011;10308;42.688;23.256;2023-03-01T04:43:31;2.20;;;2.10;;
20298;SDS011;10308;42.688;23.256;2023-03-01T04:46:02;2.22;;;2.13;;
20298;SDS011;10308;42.688;23.256;2023-03-01T04:48:29;2.20;;;2.10;;
20298;SDS011;10308;42.688;23.256;2023-03-01T04:50:57;2.33;;;2.10;;
20298;SDS011;10308;42.688;23.256;2023-03-01T04:53:24;2.30;;;2.20;;
20298;SDS011;10308;42.688;23.256;2023-03-01T04:55:51;2.53;;;2.40;;
20298;SDS011;10308;42.688;23.256;2023-03-01T04:58:19;2.53;;;2.42;;
20298;SDS011;10308;42.688;23.256;2023-03-01T05:00:46;2.50;;;2.30;;
20298;SDS011;10308;42.688;23.256;2023-03-01T05:03:13;2.40;;;2.20;;
20298;SDS011;10308;42.688;23.256;2023-03-01T05:05:43;2.25;;;2.15;;
20298;SDS011;10308;42.688;23.256;2023-03-01T05:08:11;2.35;;;2.25;;
20298;SDS011;10308;42.688;23.256;2023-03-01T05:10:42;2.33;;;2.22;;
20298;SDS011;10308;42.688;23.256;2023-03-01T05:13:11;2.38;;;2.17;;
20298;SDS011;10308;42.688;23.256;2023-03-01T05:15:39;2.60;;;2.40;;
20298;SDS011;10308;42.688;23.256;2023-03-01T05:18:06;2.65;;;2.10;;
20298;SDS011;10308;42.688;23.256;2023-03-01T05:20:36;2.20;;;2.10;;
20298;SDS011;10308;42.688;23.256;2023-03-01T05:23:03;2.33;;;2.22;;
20298;SDS011;10308;42.688;23.256;2023-03-01T05:25:31;2.92;;;2.72;;
20298;SDS011;10308;42.688;23.256;2023-03-01T05:27:59;2.53;;;2.42;;
20298;SDS011;10308;42.688;23.256;2023-03-01T05:30:29;3.08;;;2.88;;
20298;SDS011;10308;42.688;23.256;2023-03-01T05:32:59;2.50;;;2.30;;
20298;SDS011;10308;42.688;23.256;2023-03-01T05:35:26;2.90;;;2.70;;
20298;SDS011;10308;42.688;23.256;2023-03-01T05:37:54;2.28;;;2.17;;
20298;SDS011;10308;42.688;23.256;2023-03-01T05:40:22;2.47;;;2.28;;
20298;SDS011;10308;42.688;23.256;2023-03-01T05:42:53;2.70;;;2.42;;
20298;SDS011;10308;42.688;23.256;2023-03-01T05:45:21;2.40;;;2.30;;
20298;SDS011;10308;42.688;23.256;2023-03-01T05:47:48;2.80;;;2.60;;
20298;SDS011;10308;42.688;23.256;2023-03-01T05:50:18;2.70;;;2.50;;
20298;SDS011;10308;42.688;23.256;2023-03-01T05:52:46;2.70;;;2.50;;
20298;SDS011;10308;42.688;23.256;2023-03-01T05:55:13;3.15;;;2.88;;
20298;SDS011;10308;42.688;23.256;2023-03-01T05:57:40;3.92;;;3.63;;
20298;SDS011;10308;42.688;23.256;2023-03-01T06:00:08;3.90;;;3.60;;
20298;SDS011;10308;42.688;23.256;2023-03-01T06:02:35;4.13;;;3.83;;
20298;SDS011;10308;42.688;23.256;2023-03-01T06:05:03;3.20;;;3.00;;
20298;SDS011;10308;42.688;23.256;2023-03-01T06:07:32;3.80;;;3.50;;
20298;SDS011;10308;42.688;23.256;2023-03-01T06:09:59;3.45;;;3.20;;
20298;SDS011;10308;42.688;23.256;2023-03-01T06:12:29;3.75;;;3.45;;
20298;SDS011;10308;42.688;23.256;2023-03-01T06:14:57;3.50;;;3.20;;
20298;SDS011;10308;42.688;23.256;2023-03-01T06:17:23;4.63;;;3.00;;
20298;SDS011;10308;42.688;23.256;2023-03-01T06:19:50;3.15;;;2.95;;
20298;SDS011;10308;42.688;23.256;2023-03-01T06:22:17;3.33;;;3.13;;
20298;SDS011;10308;42.688;23.256;2023-03-01T06:24:45;3.70;;;3.40;;
20298;SDS011;10308;42.688;23.256;2023-03-01T06:27:12;3.60;;;3.30;;
20298;SDS011;10308;42.688;23.256;2023-03-01T06:29:38;4.35;;;4.05;;
20298;SDS011;10308;42.688;23.256;2023-03-01T06:32:05;3.40;;;3.15;;
20298;SDS011;10308;42.688;23.256;2023-03-01T06:34:33;3.83;;;3.53;;
20298;SDS011;10308;42.688;23.256;2023-03-01T06:37:00;3.72;;;3.42;;
20298;SDS011;10308;42.688;23.256;2023-03-01T06:39:30;3.08;;;2.88;;
20298;SDS011;10308;42.688;23.256;2023-03-01T06:41:58;2.90;;;2.70;;
20298;SDS011;10308;42.688;23.256;2023-03-01T06:44:25;3.25;;;3.05;;
20298;SDS011;10308;42.688;23.256;2023-03-01T06:46:52;3.65;;;3.28;;
20298;SDS011;10308;42.688;23.256;2023-03-01T06:49:19;3.17;;;2.72;;
20298;SDS011;10308;42.688;23.256;2023-03-01T06:51:46;2.90;;;2.70;;
20298;SDS011;10308;42.688;23.256;2023-03-01T06:54:13;2.75;;;2.55;;
20298;SDS011;10308;42.688;23.256;2023-03-01T06:56:41;2.40;;;2.30;;
20298;SDS011;10308;42.688;23.256;2023-03-01T06:59:09;2.75;;;2.30;;
20298;SDS011;10308;42.688;23.256;2023-03-01T07:01:36;2.17;;;2.08;;
20298;SDS011;10308;42.688;23.256;2023-03-01T07:04:03;3.03;;;2.70;;
20298;SDS011;10308;42.688;23.256;2023-03-01T07:06:30;3.17;;;2.88;;
20298;SDS011;10308;42.688;23.256;2023-03-01T07:08:57;3.03;;;2.83;;
20298;SDS011;10308;42.688;23.256;2023-03-01T07:11:24;3.47;;;2.97;;
20298;SDS011;10308;42.688;23.256;2023-03-01T07:13:50;3.08;;;2.70;;
20298;SDS011;10308;42.688;23.256;2023-03-01T07:16:18;3.72;;;3.42;;
20298;SDS011;10308;42.688;23.256;2023-03-01T07:18:45;3.63;;;3.28;;
20298;SDS011;10308;42.688;23.256;2023-03-01T07:21:13;3.38;;;3.10;;
20298;SDS011;10308;42.688;23.256;2023-03-01T07:23:41;3.05;;;2.80;;
20298;SDS011;10308;42.688;23.256;2023-03-01T07:26:08;2.97;;;2.58;;
20298;SDS011;10308;42.688;23.256;2023-03-01T07:28:35;3.35;;;3.05;;
20298;SDS011;10308;42.688;23.256;2023-03-01T07:31:03;4.43;;;3.88;;
20298;SDS011;10308;42.688;23.256;2023-03-01T07:33:32;3.00;;;2.80;;
20298;SDS011;10308;42.688;23.256;2023-03-01T07:35:59;3.47;;;3.17;;
20298;SDS011;10308;42.688;23.256;2023-03-01T07:38:27;3.45;;;2.70;;
20298;SDS011;10308;42.688;23.256;2023-03-01T07:40:57;3.60;;;3.30;;
20298;SDS011;10308;42.688;23.256;2023-03-01T07:43:25;3.83;;;3.53;;
20298;SDS011;10308;42.688;23.256;2023-03-01T07:45:51;3.10;;;2.80;;
20298;SDS011;10308;42.688;23.256;2023-03-01T07:48:18;3.72;;;3.30;;
20298;SDS011;10308;42.688;23.256;2023-03-01T07:50:46;3.63;;;2.85;;
20298;SDS011;10308;42.688;23.256;2023-03-01T07:53:13;4.07;;;3.33;;
20298;SDS011;10308;42.688;23.256;2023-03-01T07:55:40;4.10;;;2.95;;
20298;SDS011;10308;42.688;23.256;2023-03-01T07:58:07;2.90;;;2.70;;
20298;SDS011;10308;42.688;23.256;2023-03-01T08:00:33;3.17;;;2.80;;
20298;SDS011;10308;42.688;23.256;2023-03-01T08:03:00;3.83;;;3.10;;
20298;SDS011;10308;42.688;23.256;2023-03-01T08:05:27;3.92;;;3.00;;
20298;SDS011;10308;42.688;23.256;2023-03-01T08:07:56;3.75;;;2.88;;
20298;SDS011;10308;42.688;23.256;2023-03-01T08:10:23;4.55;;;4.15;;
20298;SDS011;10308;42.688;23.256;2023-03-01T08:12:50;3.40;;;3.10;;
20298;SDS011;10308;42.688;23.256;2023-03-01T08:15:18;3.63;;;3.42;;
20298;SDS011;10308;42.688;23.256;2023-03-01T08:17:45;7.53;;;6.93;;
20298;SDS011;10308;42.688;23.256;2023-03-01T08:20:11;3.92;;;3.63;;
20298;SDS011;10308;42.688;23.256;2023-03-01T08:22:38;3.90;;;3.00;;
20298;SDS011;10308;42.688;23.256;2023-03-01T08:25:06;4.22;;;3.90;;
20298;SDS011;10308;42.688;23.256;2023-03-01T08:27:34;3.80;;;3.50;;
20298;SDS011;10308;42.688;23.256;2023-03-01T08:30:00;3.65;;;3.35;;
20298;SDS011;10308;42.688;23.256;2023-03-01T08:32:27;3.80;;;3.30;;
20298;SDS011;10308;42.688;23.256;2023-03-01T08:34:54;3.78;;;3.10;;
20298;SDS011;10308;42.688;23.256;2023-03-01T08:37:21;3.45;;;3.15;;
20298;SDS011;10308;42.688;23.256;2023-03-01T08:39:48;3.75;;;3.55;;
20298;SDS011;10308;42.688;23.256;2023-03-01T08:42:16;3.38;;;3.17;;
20298;SDS011;10308;42.688;23.256;2023-03-01T08:44:45;5.20;;;3.30;;
20298;SDS011;10308;42.688;23.256;2023-03-01T08:47:11;4.03;;;3.35;;
20298;SDS011;10308;42.688;23.256;2023-03-01T08:49:38;3.15;;;2.85;;
20298;SDS011;10308;42.688;23.256;2023-03-01T08:52:05;3.75;;;3.30;;
20298;SDS011;10308;42.688;23.256;2023-03-01T08:54:31;3.60;;;3.40;;
20298;SDS011;10308;42.688;23.256;2023-03-01T08:57:00;3.38;;;3.17;;
20298;SDS011;10308;42.688;23.256;2023-03-01T08:59:29;3.95;;;3.65;;
20298;SDS011;10308;42.688;23.256;2023-03-01T09:02:00;3.45;;;3.15;;
20298;SDS011;10308;42.688;23.256;2023-03-01T09:04:27;3.90;;;3.05;;
20298;SDS011;10308;42.688;23.256;2023-03-01T09:06:54;3.70;;;3.38;;
20298;SDS011;10308;42.688;23.256;2023-03-01T09:09:20;3.40;;;3.20;;
20298;SDS011;10308;42.688;23.256;2023-03-01T09:11:47;3.60;;;3.30;;
20298;SDS011;10308;42.688;23.256;2023-03-01T09:14:15;3.75;;;3.30;;
20298;SDS011;10308;42.688;23.256;2023-03-01T09:16:44;3.50;;;2.70;;
20298;SDS011;10308;42.688;23.256;2023-03-01T09:19:10;3.08;;;2.88;;
20298;SDS011;10308;42.688;23.256;2023-03-01T09:21:37;3.60;;;2.88;;
20298;SDS011;10308;42.688;23.256;2023-03-01T09:24:05;3.10;;;2.88;;
20298;SDS011;10308;42.688;23.256;2023-03-01T09:26:32;2.55;;;2.45;;
20298;SDS011;10308;42.688;23.256;2023-03-01T09:28:59;2.65;;;2.45;;
20298;SDS011;10308;42.688;23.256;2023-03-01T09:31:25;2.42;;;2.22;;
20298;SDS011;10308;42.688;23.256;2023-03-01T09:33:53;3.35;;;3.05;;
20298;SDS011;10308;42.688;23.256;2023-03-01T09:36:21;3.38;;;2.95;;
20298;SDS011;10308;42.688;23.256;2023-03-01T09:38:48;3.85;;;2.75;;
20298;SDS011;10308;42.688;23.256;2023-03-01T09:41:30;2.17;;;2.08;;
20298;SDS011;10308;42.688;23.256;2023-03-01T09:44:04;2.83;;;2.63;;
20298;SDS011;10308;42.688;23.256;2023-03-01T09:46:37;2.72;;;2.50;;
20298;SDS011;10308;42.688;23.256;2023-03-01T09:49:10;2.25;;;2.05;;
20298;SDS011;10308;42.688;23.256;2023-03-01T09:51:39;2.55;;;2.35;;
20298;SDS011;10308;42.688;23.256;2023-03-01T09:54:06;2.42;;;2.22;;
20298;SDS011;10308;42.688;23.256;2023-03-01T09:56:37;2.85;;;2.42;;
20298;SDS011;10308;42.688;23.256;2023-03-01T09:59:10;2.33;;;2.20;;
20298;SDS011;10308;42.688;23.256;2023-03-01T10:01:44;2.60;;;2.40;;
20298;SDS011;10308;42.688;23.256;2023-03-01T10:04:27;2.53;;;2.08;;
20298;SDS011;10308;42.688;23.256;2023-03-01T10:07:02;2.25;;;2.05;;
20298;SDS011;10308;42.688;23.256;2023-03-01T10:09:43;2.40;;;2.30;;
20298;SDS011;10308;42.688;23.256;2023-03-01T10:12:12;2.60;;;2.40;;
20298;SDS011;10308;42.688;23.256;2023-03-01T10:14:43;3.05;;;2.30;;
20298;SDS011;10308;42.688;23.256;2023-03-01T10:17:15;2.30;;;2.20;;
20298;SDS011;10308;42.688;23.256;2023-03-01T10:19:47;2.53;;;2.33;;
20298;SDS011;10308;42.688;23.256;2023-03-01T10:22:15;2.40;;;2.20;;
20298;SDS011;10308;42.688;23.256;2023-03-01T10:24:43;2.65;;;2.30;;
20298;SDS011;10308;42.688;23.256;2023-03-01T10:27:11;2.40;;;2.20;;
20298;SDS011;10308;42.688;23.256;2023-03-01T10:29:46;2.72;;;2.53;;
20298;SDS011;10308;42.688;23.256;2023-03-01T10:32:15;3.20;;;2.90;;
20298;SDS011;10308;42.688;23.256;2023-03-01T10:34:42;3.00;;;2.70;;
20298;SDS011;10308;42.688;23.256;2023-03-01T10:37:12;2.90;;;2.70;;
20298;SDS011;10308;42.688;23.256;2023-03-01T10:39:53;3.17;;;2.70;;
20298;SDS011;10308;42.688;23.256;2023-03-01T10:42:23;3.13;;;2.83;;
20298;SDS011;10308;42.688;23.256;2023-03-01T10:44:52;3.20;;;3.00;;
20298;SDS011;10308;42.688;23.256;2023-03-01T10:47:20;2.95;;;2.75;;
20298;SDS011;10308;42.688;23.256;2023-03-01T10:49:54;2.97;;;2.78;;
20298;SDS011;10308;42.688;23.256;2023-03-01T10:52:24;3.00;;;2.80;;
20298;SDS011;10308;42.688;23.256;2023-03-01T10:54:54;3.25;;;3.03;;
20298;SDS011;10308;42.688;23.256;2023-03-01T10:57:36;3.08;;;2.88;;
20298;SDS011;10308;42.688;23.256;2023-03-01T11:00:17;3.00;;;2.50;;
20298;SDS011;10308;42.688;23.256;2023-03-01T11:03:02;2.88;;;2.63;;
20298;SDS011;10308;42.688;23.256;2023-03-01T11:05:35;3.05;;;2.75;;
20298;SDS011;10308;42.688;23.256;2023-03-01T11:08:03;3.22;;;2.92;;
20298;SDS011;10308;42.688;23.256;2023-03-01T11:10:30;2.85;;;2.65;;
20298;SDS011;10308;42.688;23.256;2023-03-01T11:13:08;2.55;;;2.35;;
20298;SDS011;10308;42.688;23.256;2023-03-01T11:15:39;2.78;;;2.50;;
20298;SDS011;10308;42.688;23.256;2023-03-01T11:18:15;3.92;;;3.05;;
20298;SDS011;10308;42.688;23.256;2023-03-01T11:20:45;3.50;;;3.20;;
20298;SDS011;10308;42.688;23.256;2023-03-01T11:23:14;3.00;;;2.80;;
20298;SDS011;10308;42.688;23.256;2023-03-01T11:25:42;2.50;;;2.30;;
20298;SDS011;10308;42.688;23.256;2023-03-01T11:28:12;3.00;;;2.80;;
20298;SDS011;10308;42.688;23.256;2023-03-01T11:30:41;3.35;;;3.10;;
20298;SDS011;10308;42.688;23.256;2023-03-01T11:33:16;3.13;;;2.92;;
20298;SDS011;10308;42.688;23.256;2023-03-01T11:35:46;3.30;;;3.00;;
20298;SDS011;10308;42.688;23.256;2023-03-01T11:38:18;2.88;;;2.65;;
20298;SDS011;10308;42.688;23.256;2023-03-01T11:40:49;3.70;;;3.17;;
20298;SDS011;10308;42.688;23.256;2023-03-01T11:43:22;3.00;;;2.80;;
20298;SDS011;10308;42.688;23.256;2023-03-01T11:46:03;3.33;;;3.03;;
20298;SDS011;10308;42.688;23.256;2023-03-01T11:48:48;2.60;;;2.33;;
20298;SDS011;10308;42.688;23.256;2023-03-01T11:51:22;2.80;;;2.50;;
20298;SDS011;10308;42.688;23.256;2023-03-01T11:53:56;4.20;;;2.58;;
20298;SDS011;10308;42.688;23.256;2023-03-01T11:56:32;3.70;;;2.83;;
20298;SDS011;10308;42.688;23.256;2023-03-01T11:59:03;3.67;;;2.95;;
20298;SDS011;10308;42.688;23.256;2023-03-01T12:01:51;3.50;;;3.20;;
20298;SDS011;10308;42.688;23.256;2023-03-01T12:04:43;2.90;;;2.58;;
20298;SDS011;10308;42.688;23.256;2023-03-01T12:07:21;2.30;;;2.20;;
20298;SDS011;10308;42.688;23.256;2023-03-01T12:09:56;3.35;;;2.95;;
20298;SDS011;10308;42.688;23.256;2023-03-01T12:12:35;3.97;;;3.10;;
20298;SDS011;10308;42.688;23.256;2023-03-01T12:15:27;4.15;;;2.95;;
20298;SDS011;10308;42.688;23.256;2023-03-01T12:18:37;3.15;;;2.90;;
20298;SDS011;10308;42.688;23.256;2023-03-01T12:21:15;3.97;;;3.10;;
20298;SDS011;10308;42.688;23.256;2023-03-01T12:26:44;3.30;;;3.00;;
20298;SDS011;10308;42.688;23.256;2023-03-01T12:32:00;3.67;;;3.38;;
20298;SDS011;10308;42.688;23.256;2023-03-01T12:34:40;3.97;;;3.65;;
20298;SDS011;10308;42.688;23.256;2023-03-01T12:37:33;3.97;;;3.60;;
20298;SDS011;10308;42.688;23.256;2023-03-01T12:40:27;4.43;;;4.00;;
20298;SDS011;10308;42.688;23.256;2023-03-01T12:43:04;3.70;;;3.40;;
20298;SDS011;10308;42.688;23.256;2023-03-01T12:45:45;4.13;;;3.83;;
20298;SDS011;10308;42.688;23.256;2023-03-01T12:48:21;3.80;;;3.50;;
20298;SDS011;10308;42.688;23.256;2023-03-01T12:50:54;3.25;;;2.95;;
20298;SDS011;10308;42.688;23.256;2023-03-01T12:53:24;4.18;;;3.80;;
20298;SDS011;10308;42.688;23.256;2023-03-01T12:55:53;3.70;;;3.40;;
20298;SDS011;10308;42.688;23.256;2023-03-01T12:58:24;4.07;;;3.78;;
20298;SDS011;10308;42.688;23.256;2023-03-01T13:01:07;3.15;;;2.95;;
20298;SDS011;10308;42.688;23.256;2023-03-01T13:03:53;4.18;;;3.80;;
20298;SDS011;10308;42.688;23.256;2023-03-01T13:06:32;3.80;;;3.50;;
20298;SDS011;10308;42.688;23.256;2023-03-01T13:09:10;4.20;;;3.90;;
20298;SDS011;10308;42.688;23.256;2023-03-01T13:11:41;6.95;;;4.13;;
20298;SDS011;10308;42.688;23.256;2023-03-01T13:17:04;3.67;;;3.45;;
20298;SDS011;10308;42.688;23.256;2023-03-01T13:19:55;3.55;;;3.25;;
20298;SDS011;10308;42.688;23.256;2023-03-01T13:22:26;3.80;;;3.50;;
20298;SDS011;10308;42.688;23.256;2023-03-01T13:27:45;4.13;;;3.72;;
20298;SDS011;10308;42.688;23.256;2023-03-01T13:36:06;3.70;;;3.40;;
20298;SDS011;10308;42.688;23.256;2023-03-01T13:38:44;3.85;;;3.55;;
20298;SDS011;10308;42.688;23.256;2023-03-01T13:41:13;3.65;;;3.22;;
20298;SDS011;10308;42.688;23.256;2023-03-01T13:43:40;3.97;;;3.67;;
20298;SDS011;10308;42.688;23.256;2023-03-01T13:46:11;3.60;;;3.30;;
20298;SDS011;10308;42.688;23.256;2023-03-01T13:48:42;3.75;;;3.45;;
20298;SDS011;10308;42.688;23.256;2023-03-01T13:51:11;4.13;;;3.83;;
20298;SDS011;10308;42.688;23.256;2023-03-01T13:53:39;3.67;;;3.38;;
20298;SDS011;10308;42.688;23.256;2023-03-01T13:56:08;3.60;;;3.40;;
20298;SDS011;10308;42.688;23.256;2023-03-01T13:58:44;4.20;;;3.90;;
20298;SDS011;10308;42.688;23.256;2023-03-01T14:01:22;4.22;;;3.75;;
20298;SDS011;10308;42.688;23.256;2023-03-01T14:03:50;3.53;;;3.30;;
20298;SDS011;10308;42.688;23.256;2023-03-01T14:06:19;3.70;;;3.30;;
20298;SDS011;10308;42.688;23.256;2023-03-01T14:08:48;4.05;;;3.60;;
20298;SDS011;10308;42.688;23.256;2023-03-01T14:11:26;4.32;;;3.92;;
20298;SDS011;10308;42.688;23.256;2023-03-01T14:14:18;4.88;;;4.30;;
20298;SDS011;10308;42.688;23.256;2023-03-01T14:17:08;4.80;;;3.72;;
20298;SDS011;10308;42.688;23.256;2023-03-01T14:19:45;5.50;;;4.88;;
20298;SDS011;10308;42.688;23.256;2023-03-01T14:22:16;7.93;;;6.82;;
20298;SDS011;10308;42.688;23.256;2023-03-01T14:24:46;6.45;;;5.85;;
20298;SDS011;10308;42.688;23.256;2023-03-01T14:27:14;6.10;;;5.18;;
20298;SDS011;10308;42.688;23.256;2023-03-01T14:29:41;6.75;;;5.88;;
20298;SDS011;10308;42.688;23.256;2023-03-01T14:32:10;5.22;;;4.70;;
20298;SDS011;10308;42.688;23.256;2023-03-01T14:34:42;4.88;;;4.38;;
20298;SDS011;10308;42.688;23.256;2023-03-01T14:37:10;4.78;;;4.15;;
20298;SDS011;10308;42.688;23.256;2023-03-01T14:39:37;4.80;;;4.28;;
20298;SDS011;10308;42.688;23.256;2023-03-01T14:42:04;4.82;;;4.25;;
20298;SDS011;10308;42.688;23.256;2023-03-01T14:44:31;4.35;;;4.05;;
20298;SDS011;10308;42.688;23.256;2023-03-01T14:47:02;4.28;;;3.70;;
20298;SDS011;10308;42.688;23.256;2023-03-01T14:49:30;3.80;;;3.42;;
20298;SDS011;10308;42.688;23.256;2023-03-01T14:51:58;3.60;;;3.30;;
20298;SDS011;10308;42.688;23.256;2023-03-01T14:54:28;4.68;;;3.42;;
20298;SDS011;10308;42.688;23.256;2023-03-01T14:56:58;3.42;;;3.10;;
20298;SDS011;10308;42.688;23.256;2023-03-01T14:59:26;4.07;;;3.00;;
20298;SDS011;10308;42.688;23.256;2023-03-01T15:01:54;3.40;;;3.10;;
20298;SDS011;10308;42.688;23.256;2023-03-01T15:04:22;4.30;;;2.92;;
20298;SDS011;10308;42.688;23.256;2023-03-01T15:06:53;3.40;;;3.10;;
20298;SDS011;10308;42.688;23.256;2023-03-01T15:09:21;3.55;;;3.25;;
20298;SDS011;10308;42.688;23.256;2023-03-01T15:11:48;3.50;;;3.20;;